sensor_id;sensor_type;location;lat;lon;timestamp;P1;durP1;ratioP1;P2;durP2;ratioP2
28304;SDS011;15569;42.652;23.040;2023-03-01T00:01:45;29.48;;;15.20;;
28304;SDS011;15569;42.652;23.040;2023-03-01T00:04:11;22.00;;;12.00;;
28304;SDS011;15569;42.652;23.040;2023-03-01T00:06:36;18.58;;;11.32;;
28304;SDS011;15569;42.652;23.040;2023-03-01T00:09:02;12.95;;;8.82;;
28304;SDS011;15569;42.652;23.040;2023-03-01T00:11:29;17.17;;;8.93;;
28304;SDS011;15569;42.652;23.040;2023-03-01T00:13:57;22.00;;;11.20;;
28304;SDS011;15569;42.652;23.040;2023-03-01T00:16:30;23.40;;;14.02;;
28304;SDS011;15569;42.652;23.040;2023-03-01T00:19:00;19.77;;;10.18;;
28304;SDS011;15569;42.652;23.040;2023-03-01T00:21:26;14.38;;;9.95;;
28304;SDS011;15569;42.652;23.040;2023-03-01T00:23:53;16.00;;;9.00;;
28304;SDS011;15569;42.652;23.040;2023-03-01T00:26:19;37.50;;;16.20;;
28304;SDS011;15569;42.652;23.040;2023-03-01T00:28:46;13.88;;;9.65;;
28304;SDS011;15569;42.652;23.040;2023-03-01T00:31:16;11.07;;;7.10;;
28304;SDS011;15569;42.652;23.040;2023-03-01T00:33:43;16.55;;;9.25;;
28304;SDS011;15569;42.652;23.040;2023-03-01T00:36:09;14.43;;;9.15;;
28304;SDS011;15569;42.652;23.040;2023-03-01T00:38:36;30.15;;;12.20;;
28304;SDS011;15569;42.652;23.040;2023-03-01T00:41:03;12.80;;;8.25;;
28304;SDS011;15569;42.652;23.040;2023-03-01T00:43:30;8.40;;;6.10;;
28304;SDS011;15569;42.652;23.040;2023-03-01T00:45:56;12.98;;;8.00;;
28304;SDS011;15569;42.652;23.040;2023-03-01T00:48:26;15.65;;;10.02;;
28304;SDS011;15569;42.652;23.040;2023-03-01T00:50:51;14.93;;;9.57;;
28304;SDS011;15569;42.652;23.040;2023-03-01T00:53:17;14.00;;;8.38;;
28304;SDS011;15569;42.652;23.040;2023-03-01T00:55:42;9.82;;;7.13;;
28304;SDS011;15569;42.652;23.040;2023-03-01T00:58:07;9.57;;;7.07;;
28304;SDS011;15569;42.652;23.040;2023-03-01T01:00:33;12.48;;;8.38;;
28304;SDS011;15569;42.652;23.040;2023-03-01T01:02:58;11.40;;;8.43;;
28304;SDS011;15569;42.652;23.040;2023-03-01T01:05:24;8.25;;;5.05;;
28304;SDS011;15569;42.652;23.040;2023-03-01T01:07:49;10.05;;;6.53;;
28304;SDS011;15569;42.652;23.040;2023-03-01T01:10:14;10.77;;;6.90;;
28304;SDS011;15569;42.652;23.040;2023-03-01T01:12:42;10.48;;;6.80;;
28304;SDS011;15569;42.652;23.040;2023-03-01T01:15:09;13.98;;;8.55;;
28304;SDS011;15569;42.652;23.040;2023-03-01T01:17:38;13.38;;;8.48;;
28304;SDS011;15569;42.652;23.040;2023-03-01T01:20:03;13.30;;;7.63;;
28304;SDS011;15569;42.652;23.040;2023-03-01T01:22:29;11.25;;;7.78;;
28304;SDS011;15569;42.652;23.040;2023-03-01T01:24:54;14.93;;;9.02;;
28304;SDS011;15569;42.652;23.040;2023-03-01T01:27:20;10.90;;;7.63;;
28304;SDS011;15569;42.652;23.040;2023-03-01T01:29:45;21.83;;;12.38;;
28304;SDS011;15569;42.652;23.040;2023-03-01T01:32:10;17.45;;;8.85;;
28304;SDS011;15569;42.652;23.040;2023-03-01T01:34:36;12.10;;;8.00;;
28304;SDS011;15569;42.652;23.040;2023-03-01T01:37:01;17.48;;;10.52;;
28304;SDS011;15569;42.652;23.040;2023-03-01T01:39:27;21.15;;;11.45;;
28304;SDS011;15569;42.652;23.040;2023-03-01T01:41:53;12.52;;;7.82;;
28304;SDS011;15569;42.652;23.040;2023-03-01T01:44:20;16.08;;;9.20;;
28304;SDS011;15569;42.652;23.040;2023-03-01T01:47:13;14.55;;;9.07;;
28304;SDS011;15569;42.652;23.040;2023-03-01T01:49:48;12.65;;;7.93;;
28304;SDS011;15569;42.652;23.040;2023-03-01T01:54:50;9.40;;;7.50;;
28304;SDS011;15569;42.652;23.040;2023-03-01T01:57:20;9.65;;;7.13;;
28304;SDS011;15569;42.652;23.040;2023-03-01T01:59:54;8.55;;;5.80;;
28304;SDS011;15569;42.652;23.040;2023-03-01T02:02:24;9.55;;;7.20;;
28304;SDS011;15569;42.652;23.040;2023-03-01T02:04:51;11.07;;;8.02;;
28304;SDS011;15569;42.652;23.040;2023-03-01T02:07:23;10.95;;;6.00;;
28304;SDS011;15569;42.652;23.040;2023-03-01T02:09:50;8.50;;;6.35;;
28304;SDS011;15569;42.652;23.040;2023-03-01T02:12:18;15.43;;;9.02;;
28304;SDS011;15569;42.652;23.040;2023-03-01T02:14:46;10.73;;;6.65;;
28304;SDS011;15569;42.652;23.040;2023-03-01T02:17:12;7.38;;;6.65;;
28304;SDS011;15569;42.652;23.040;2023-03-01T02:22:32;9.75;;;7.03;;
28304;SDS011;15569;42.652;23.040;2023-03-01T02:30:28;5.00;;;4.20;;
28304;SDS011;15569;42.652;23.040;2023-03-01T02:32:55;6.10;;;4.15;;
28304;SDS011;15569;42.652;23.040;2023-03-01T02:35:27;4.05;;;3.40;;
28304;SDS011;15569;42.652;23.040;2023-03-01T02:40:25;6.18;;;3.88;;
28304;SDS011;15569;42.652;23.040;2023-03-01T02:42:54;4.25;;;3.67;;
28304;SDS011;15569;42.652;23.040;2023-03-01T02:45:23;8.15;;;4.80;;
28304;SDS011;15569;42.652;23.040;2023-03-01T02:47:49;5.63;;;4.05;;
28304;SDS011;15569;42.652;23.040;2023-03-01T02:52:57;5.00;;;4.40;;
28304;SDS011;15569;42.652;23.040;2023-03-01T02:56:00;5.55;;;3.80;;
28304;SDS011;15569;42.652;23.040;2023-03-01T02:58:26;2.75;;;2.55;;
28304;SDS011;15569;42.652;23.040;2023-03-01T03:00:52;10.95;;;6.53;;
28304;SDS011;15569;42.652;23.040;2023-03-01T03:03:17;7.93;;;4.60;;
28304;SDS011;15569;42.652;23.040;2023-03-01T03:05:45;8.73;;;5.10;;
28304;SDS011;15569;42.652;23.040;2023-03-01T03:08:10;4.93;;;4.03;;
28304;SDS011;15569;42.652;23.040;2023-03-01T03:10:39;8.65;;;5.13;;
28304;SDS011;15569;42.652;23.040;2023-03-01T03:13:07;7.75;;;5.32;;
28304;SDS011;15569;42.652;23.040;2023-03-01T03:15:34;7.13;;;4.90;;
28304;SDS011;15569;42.652;23.040;2023-03-01T03:18:04;7.53;;;5.70;;
28304;SDS011;15569;42.652;23.040;2023-03-01T03:20:34;10.05;;;5.85;;
28304;SDS011;15569;42.652;23.040;2023-03-01T03:23:00;6.05;;;4.70;;
28304;SDS011;15569;42.652;23.040;2023-03-01T03:25:26;11.13;;;5.30;;
28304;SDS011;15569;42.652;23.040;2023-03-01T03:27:53;6.88;;;4.72;;
28304;SDS011;15569;42.652;23.040;2023-03-01T03:30:22;6.82;;;4.22;;
28304;SDS011;15569;42.652;23.040;2023-03-01T03:32:49;3.33;;;2.80;;
28304;SDS011;15569;42.652;23.040;2023-03-01T03:35:28;4.68;;;3.50;;
28304;SDS011;15569;42.652;23.040;2023-03-01T03:37:55;9.13;;;5.45;;
28304;SDS011;15569;42.652;23.040;2023-03-01T03:40:38;5.60;;;3.88;;
28304;SDS011;15569;42.652;23.040;2023-03-01T03:43:06;5.32;;;4.60;;
28304;SDS011;15569;42.652;23.040;2023-03-01T03:45:33;5.35;;;4.25;;
28304;SDS011;15569;42.652;23.040;2023-03-01T03:48:00;4.78;;;3.63;;
28304;SDS011;15569;42.652;23.040;2023-03-01T03:50:26;5.40;;;3.83;;
28304;SDS011;15569;42.652;23.040;2023-03-01T03:52:51;8.20;;;5.43;;
28304;SDS011;15569;42.652;23.040;2023-03-01T03:55:17;5.15;;;4.28;;
28304;SDS011;15569;42.652;23.040;2023-03-01T03:57:44;6.63;;;4.55;;
28304;SDS011;15569;42.652;23.040;2023-03-01T04:00:19;5.80;;;4.13;;
28304;SDS011;15569;42.652;23.040;2023-03-01T04:02:46;6.88;;;4.82;;
28304;SDS011;15569;42.652;23.040;2023-03-01T04:05:13;7.60;;;5.07;;
28304;SDS011;15569;42.652;23.040;2023-03-01T04:07:40;5.75;;;5.03;;
28304;SDS011;15569;42.652;23.040;2023-03-01T04:10:09;6.35;;;4.22;;
28304;SDS011;15569;42.652;23.040;2023-03-01T04:12:36;7.45;;;4.43;;
28304;SDS011;15569;42.652;23.040;2023-03-01T04:15:05;8.38;;;5.80;;
28304;SDS011;15569;42.652;23.040;2023-03-01T04:17:44;8.63;;;6.00;;
28304;SDS011;15569;42.652;23.040;2023-03-01T04:20:12;9.70;;;6.85;;
28304;SDS011;15569;42.652;23.040;2023-03-01T04:22:42;7.15;;;5.32;;
28304;SDS011;15569;42.652;23.040;2023-03-01T04:25:11;6.43;;;5.00;;
28304;SDS011;15569;42.652;23.040;2023-03-01T04:27:39;10.23;;;5.35;;
28304;SDS011;15569;42.652;23.040;2023-03-01T05:16:34;11.57;;;7.30;;
28304;SDS011;15569;42.652;23.040;2023-03-01T05:19:01;12.50;;;8.35;;
28304;SDS011;15569;42.652;23.040;2023-03-01T05:21:36;10.15;;;7.38;;
28304;SDS011;15569;42.652;23.040;2023-03-01T05:24:22;10.27;;;7.22;;
28304;SDS011;15569;42.652;23.040;2023-03-01T05:26:48;10.55;;;6.63;;
28304;SDS011;15569;42.652;23.040;2023-03-01T05:29:13;11.45;;;6.72;;
28304;SDS011;15569;42.652;23.040;2023-03-01T05:31:38;8.63;;;6.65;;
28304;SDS011;15569;42.652;23.040;2023-03-01T05:34:04;8.75;;;5.93;;
28304;SDS011;15569;42.652;23.040;2023-03-01T05:36:29;7.60;;;6.18;;
28304;SDS011;15569;42.652;23.040;2023-03-01T05:38:55;12.43;;;6.72;;
28304;SDS011;15569;42.652;23.040;2023-03-01T05:41:20;8.85;;;6.20;;
28304;SDS011;15569;42.652;23.040;2023-03-01T05:43:46;9.40;;;6.20;;
28304;SDS011;15569;42.652;23.040;2023-03-01T05:46:11;7.38;;;5.28;;
28304;SDS011;15569;42.652;23.040;2023-03-01T05:48:38;8.75;;;5.70;;
28304;SDS011;15569;42.652;23.040;2023-03-01T05:51:03;14.27;;;8.50;;
28304;SDS011;15569;42.652;23.040;2023-03-01T05:53:29;14.57;;;8.15;;
28304;SDS011;15569;42.652;23.040;2023-03-01T05:55:54;10.02;;;7.90;;
28304;SDS011;15569;42.652;23.040;2023-03-01T05:58:20;10.05;;;5.55;;
28304;SDS011;15569;42.652;23.040;2023-03-01T06:00:47;11.95;;;6.70;;
28304;SDS011;15569;42.652;23.040;2023-03-01T06:03:14;12.00;;;7.35;;
28304;SDS011;15569;42.652;23.040;2023-03-01T06:05:41;9.95;;;7.07;;
28304;SDS011;15569;42.652;23.040;2023-03-01T06:08:08;12.20;;;7.55;;
28304;SDS011;15569;42.652;23.040;2023-03-01T06:10:34;10.45;;;7.22;;
28304;SDS011;15569;42.652;23.040;2023-03-01T06:13:00;12.07;;;8.30;;
28304;SDS011;15569;42.652;23.040;2023-03-01T06:15:25;13.77;;;8.80;;
28304;SDS011;15569;42.652;23.040;2023-03-01T06:17:53;16.67;;;8.73;;
28304;SDS011;15569;42.652;23.040;2023-03-01T06:20:23;11.50;;;7.07;;
28304;SDS011;15569;42.652;23.040;2023-03-01T06:22:50;16.88;;;10.43;;
28304;SDS011;15569;42.652;23.040;2023-03-01T06:25:17;9.18;;;6.85;;
28304;SDS011;15569;42.652;23.040;2023-03-01T06:27:46;15.10;;;8.25;;
28304;SDS011;15569;42.652;23.040;2023-03-01T06:30:14;14.82;;;8.15;;
28304;SDS011;15569;42.652;23.040;2023-03-01T06:32:41;12.05;;;7.38;;
28304;SDS011;15569;42.652;23.040;2023-03-01T06:35:07;19.45;;;10.75;;
28304;SDS011;15569;42.652;23.040;2023-03-01T06:37:33;16.08;;;8.98;;
28304;SDS011;15569;42.652;23.040;2023-03-01T06:40:00;13.93;;;8.68;;
28304;SDS011;15569;42.652;23.040;2023-03-01T06:42:29;12.05;;;9.27;;
28304;SDS011;15569;42.652;23.040;2023-03-01T06:44:55;14.82;;;9.35;;
28304;SDS011;15569;42.652;23.040;2023-03-01T06:47:20;12.35;;;9.18;;
28304;SDS011;15569;42.652;23.040;2023-03-01T06:49:45;15.98;;;8.70;;
28304;SDS011;15569;42.652;23.040;2023-03-01T06:52:11;11.43;;;7.97;;
28304;SDS011;15569;42.652;23.040;2023-03-01T06:54:36;14.77;;;8.43;;
28304;SDS011;15569;42.652;23.040;2023-03-01T06:57:01;12.15;;;8.20;;
28304;SDS011;15569;42.652;23.040;2023-03-01T06:59:27;14.57;;;8.63;;
28304;SDS011;15569;42.652;23.040;2023-03-01T07:01:52;22.75;;;10.25;;
28304;SDS011;15569;42.652;23.040;2023-03-01T07:04:18;14.43;;;9.48;;
28304;SDS011;15569;42.652;23.040;2023-03-01T07:06:43;12.70;;;8.52;;
28304;SDS011;15569;42.652;23.040;2023-03-01T07:09:08;13.50;;;8.05;;
28304;SDS011;15569;42.652;23.040;2023-03-01T07:11:34;12.63;;;8.38;;
28304;SDS011;15569;42.652;23.040;2023-03-01T07:13:59;9.85;;;7.10;;
28304;SDS011;15569;42.652;23.040;2023-03-01T07:19:10;16.42;;;10.05;;
28304;SDS011;15569;42.652;23.040;2023-03-01T07:21:36;13.30;;;8.05;;
28304;SDS011;15569;42.652;23.040;2023-03-01T07:24:03;17.02;;;8.68;;
28304;SDS011;15569;42.652;23.040;2023-03-01T07:26:31;13.32;;;8.95;;
28304;SDS011;15569;42.652;23.040;2023-03-01T07:28:58;11.50;;;7.63;;
28304;SDS011;15569;42.652;23.040;2023-03-01T07:31:24;14.88;;;8.20;;
28304;SDS011;15569;42.652;23.040;2023-03-01T07:33:52;12.38;;;8.55;;
28304;SDS011;15569;42.652;23.040;2023-03-01T07:36:18;16.08;;;9.50;;
28304;SDS011;15569;42.652;23.040;2023-03-01T07:38:43;12.65;;;8.10;;
28304;SDS011;15569;42.652;23.040;2023-03-01T07:41:08;13.10;;;8.00;;
28304;SDS011;15569;42.652;23.040;2023-03-01T07:43:34;11.68;;;7.97;;
28304;SDS011;15569;42.652;23.040;2023-03-01T07:46:00;12.93;;;9.00;;
28304;SDS011;15569;42.652;23.040;2023-03-01T07:48:26;13.45;;;9.90;;
28304;SDS011;15569;42.652;23.040;2023-03-01T07:50:51;14.93;;;9.32;;
28304;SDS011;15569;42.652;23.040;2023-03-01T07:53:17;13.20;;;8.60;;
28304;SDS011;15569;42.652;23.040;2023-03-01T07:55:42;12.20;;;8.50;;
28304;SDS011;15569;42.652;23.040;2023-03-01T07:58:08;11.35;;;8.55;;
28304;SDS011;15569;42.652;23.040;2023-03-01T08:00:33;15.27;;;9.07;;
28304;SDS011;15569;42.652;23.040;2023-03-01T08:02:59;14.63;;;9.60;;
28304;SDS011;15569;42.652;23.040;2023-03-01T08:05:25;25.05;;;14.80;;
28304;SDS011;15569;42.652;23.040;2023-03-01T08:07:51;15.85;;;10.52;;
28304;SDS011;15569;42.652;23.040;2023-03-01T08:10:17;13.80;;;9.55;;
28304;SDS011;15569;42.652;23.040;2023-03-01T08:12:42;19.45;;;11.45;;
28304;SDS011;15569;42.652;23.040;2023-03-01T08:15:08;10.10;;;7.65;;
28304;SDS011;15569;42.652;23.040;2023-03-01T08:17:34;13.77;;;9.55;;
28304;SDS011;15569;42.652;23.040;2023-03-01T08:19:59;20.20;;;12.57;;
28304;SDS011;15569;42.652;23.040;2023-03-01T08:22:24;15.90;;;10.95;;
28304;SDS011;15569;42.652;23.040;2023-03-01T08:24:50;14.18;;;10.50;;
28304;SDS011;15569;42.652;23.040;2023-03-01T08:27:18;14.90;;;8.98;;
28304;SDS011;15569;42.652;23.040;2023-03-01T08:29:43;11.70;;;9.13;;
28304;SDS011;15569;42.652;23.040;2023-03-01T08:32:09;14.15;;;10.45;;
28304;SDS011;15569;42.652;23.040;2023-03-01T08:34:34;12.93;;;9.15;;
28304;SDS011;15569;42.652;23.040;2023-03-01T08:37:00;13.10;;;10.25;;
28304;SDS011;15569;42.652;23.040;2023-03-01T08:39:26;15.23;;;9.35;;
28304;SDS011;15569;42.652;23.040;2023-03-01T08:41:52;17.20;;;9.48;;
28304;SDS011;15569;42.652;23.040;2023-03-01T08:44:17;16.52;;;10.75;;
28304;SDS011;15569;42.652;23.040;2023-03-01T08:46:43;25.27;;;13.00;;
28304;SDS011;15569;42.652;23.040;2023-03-01T08:49:14;28.90;;;13.45;;
28304;SDS011;15569;42.652;23.040;2023-03-01T08:51:40;22.65;;;11.85;;
28304;SDS011;15569;42.652;23.040;2023-03-01T08:54:09;29.92;;;13.63;;
28304;SDS011;15569;42.652;23.040;2023-03-01T08:56:37;22.92;;;10.52;;
28304;SDS011;15569;42.652;23.040;2023-03-01T08:59:03;59.55;;;24.38;;
28304;SDS011;15569;42.652;23.040;2023-03-01T09:01:29;25.48;;;13.63;;
28304;SDS011;15569;42.652;23.040;2023-03-01T09:03:54;17.45;;;11.73;;
28304;SDS011;15569;42.652;23.040;2023-03-01T09:06:20;20.23;;;11.80;;
28304;SDS011;15569;42.652;23.040;2023-03-01T09:08:46;15.27;;;10.52;;
28304;SDS011;15569;42.652;23.040;2023-03-01T09:11:14;28.63;;;17.15;;
28304;SDS011;15569;42.652;23.040;2023-03-01T09:13:42;27.60;;;13.85;;
28304;SDS011;15569;42.652;23.040;2023-03-01T09:16:08;13.75;;;8.18;;
28304;SDS011;15569;42.652;23.040;2023-03-01T09:21:38;16.20;;;8.63;;
28304;SDS011;15569;42.652;23.040;2023-03-01T09:24:04;24.73;;;13.00;;
28304;SDS011;15569;42.652;23.040;2023-03-01T09:26:30;22.42;;;11.15;;
28304;SDS011;15569;42.652;23.040;2023-03-01T09:28:55;15.75;;;10.05;;
28304;SDS011;15569;42.652;23.040;2023-03-01T09:31:22;27.08;;;12.35;;
28304;SDS011;15569;42.652;23.040;2023-03-01T09:33:49;19.90;;;12.05;;
28304;SDS011;15569;42.652;23.040;2023-03-01T09:36:18;23.77;;;12.15;;
28304;SDS011;15569;42.652;23.040;2023-03-01T09:38:45;22.70;;;13.00;;
28304;SDS011;15569;42.652;23.040;2023-03-01T09:46:44;17.35;;;8.48;;
28304;SDS011;15569;42.652;23.040;2023-03-01T09:49:11;20.48;;;11.65;;
28304;SDS011;15569;42.652;23.040;2023-03-01T09:51:44;14.25;;;10.18;;
28304;SDS011;15569;42.652;23.040;2023-03-01T09:54:19;12.88;;;8.25;;
28304;SDS011;15569;42.652;23.040;2023-03-01T10:02:43;11.63;;;8.25;;
28304;SDS011;15569;42.652;23.040;2023-03-01T10:05:27;10.55;;;6.70;;
28304;SDS011;15569;42.652;23.040;2023-03-01T10:10:43;24.27;;;12.43;;
28304;SDS011;15569;42.652;23.040;2023-03-01T10:13:23;16.63;;;8.43;;
28304;SDS011;15569;42.652;23.040;2023-03-01T10:16:11;25.40;;;13.30;;
28304;SDS011;15569;42.652;23.040;2023-03-01T10:18:41;23.30;;;11.60;;
28304;SDS011;15569;42.652;23.040;2023-03-01T10:21:14;28.45;;;13.20;;
28304;SDS011;15569;42.652;23.040;2023-03-01T10:23:42;74.75;;;25.33;;
28304;SDS011;15569;42.652;23.040;2023-03-01T10:29:04;101.13;;;30.95;;
28304;SDS011;15569;42.652;23.040;2023-03-01T10:31:47;69.53;;;34.83;;
28304;SDS011;15569;42.652;23.040;2023-03-01T10:34:15;9.35;;;6.43;;
28304;SDS011;15569;42.652;23.040;2023-03-01T10:36:44;17.60;;;9.45;;
28304;SDS011;15569;42.652;23.040;2023-03-01T10:39:14;26.95;;;11.13;;
28304;SDS011;15569;42.652;23.040;2023-03-01T10:44:39;21.73;;;9.80;;
28304;SDS011;15569;42.652;23.040;2023-03-01T10:47:19;22.35;;;9.40;;
28304;SDS011;15569;42.652;23.040;2023-03-01T10:52:23;12.57;;;9.30;;
28304;SDS011;15569;42.652;23.040;2023-03-01T10:54:58;14.35;;;8.65;;
28304;SDS011;15569;42.652;23.040;2023-03-01T10:57:34;14.93;;;8.38;;
28304;SDS011;15569;42.652;23.040;2023-03-01T11:02:47;10.13;;;6.10;;
28304;SDS011;15569;42.652;23.040;2023-03-01T11:07:46;11.45;;;7.13;;
28304;SDS011;15569;42.652;23.040;2023-03-01T11:10:23;12.38;;;7.65;;
28304;SDS011;15569;42.652;23.040;2023-03-01T11:13:06;14.15;;;7.80;;
28304;SDS011;15569;42.652;23.040;2023-03-01T11:15:34;49.55;;;21.35;;
28304;SDS011;15569;42.652;23.040;2023-03-01T11:18:00;26.70;;;12.35;;
28304;SDS011;15569;42.652;23.040;2023-03-01T11:20:28;16.25;;;10.20;;
28304;SDS011;15569;42.652;23.040;2023-03-01T11:23:08;20.05;;;10.98;;
28304;SDS011;15569;42.652;23.040;2023-03-01T11:25:38;25.02;;;11.50;;
28304;SDS011;15569;42.652;23.040;2023-03-01T11:28:07;17.33;;;8.80;;
28304;SDS011;15569;42.652;23.040;2023-03-01T11:38:38;12.90;;;8.25;;
28304;SDS011;15569;42.652;23.040;2023-03-01T11:43:53;9.18;;;6.32;;
28304;SDS011;15569;42.652;23.040;2023-03-01T11:56:55;20.48;;;10.68;;
28304;SDS011;15569;42.652;23.040;2023-03-01T12:07:10;9.80;;;6.80;;
28304;SDS011;15569;42.652;23.040;2023-03-01T12:12:36;14.60;;;9.00;;
28304;SDS011;15569;42.652;23.040;2023-03-01T12:15:29;22.13;;;13.45;;
28304;SDS011;15569;42.652;23.040;2023-03-01T12:20:30;39.90;;;17.02;;
28304;SDS011;15569;42.652;23.040;2023-03-01T12:34:15;14.82;;;7.88;;
28304;SDS011;15569;42.652;23.040;2023-03-01T12:48:17;13.10;;;6.90;;
28304;SDS011;15569;42.652;23.040;2023-03-01T12:50:44;14.57;;;8.32;;
28304;SDS011;15569;42.652;23.040;2023-03-01T12:55:49;23.13;;;10.13;;
28304;SDS011;15569;42.652;23.040;2023-03-01T12:58:20;12.10;;;6.35;;
28304;SDS011;15569;42.652;23.040;2023-03-01T13:06:08;11.32;;;6.72;;
28304;SDS011;15569;42.652;23.040;2023-03-01T13:11:15;13.60;;;7.55;;
28304;SDS011;15569;42.652;23.040;2023-03-01T13:13:44;12.80;;;6.07;;
28304;SDS011;15569;42.652;23.040;2023-03-01T13:19:14;10.77;;;7.32;;
28304;SDS011;15569;42.652;23.040;2023-03-01T13:24:33;10.80;;;6.38;;
28304;SDS011;15569;42.652;23.040;2023-03-01T13:27:21;9.25;;;5.80;;
28304;SDS011;15569;42.652;23.040;2023-03-01T13:29:54;12.80;;;7.30;;
28304;SDS011;15569;42.652;23.040;2023-03-01T13:32:24;12.88;;;6.63;;
28304;SDS011;15569;42.652;23.040;2023-03-01T13:37:37;11.73;;;6.30;;
28304;SDS011;15569;42.652;23.040;2023-03-01T13:43:22;14.77;;;6.13;;
28304;SDS011;15569;42.652;23.040;2023-03-01T13:45:49;13.82;;;6.95;;
28304;SDS011;15569;42.652;23.040;2023-03-01T13:48:22;12.68;;;6.90;;
28304;SDS011;15569;42.652;23.040;2023-03-01T13:50:51;17.67;;;7.38;;
28304;SDS011;15569;42.652;23.040;2023-03-01T13:53:26;9.32;;;6.10;;
28304;SDS011;15569;42.652;23.040;2023-03-01T13:55:55;8.45;;;5.82;;
28304;SDS011;15569;42.652;23.040;2023-03-01T13:58:30;16.45;;;9.65;;
28304;SDS011;15569;42.652;23.040;2023-03-01T14:01:04;10.40;;;5.45;;
28304;SDS011;15569;42.652;23.040;2023-03-01T14:03:32;13.10;;;7.32;;
28304;SDS011;15569;42.652;23.040;2023-03-01T14:06:14;14.98;;;8.35;;
28304;SDS011;15569;42.652;23.040;2023-03-01T14:08:45;13.60;;;8.65;;
28304;SDS011;15569;42.652;23.040;2023-03-01T14:11:33;14.38;;;7.18;;
28304;SDS011;15569;42.652;23.040;2023-03-01T14:14:20;24.48;;;14.52;;
28304;SDS011;15569;42.652;23.040;2023-03-01T14:19:34;13.80;;;6.63;;
28304;SDS011;15569;42.652;23.040;2023-03-01T14:24:48;17.20;;;9.35;;
28304;SDS011;15569;42.652;23.040;2023-03-01T14:27:15;9.45;;;5.68;;
28304;SDS011;15569;42.652;23.040;2023-03-01T14:29:41;13.65;;;6.07;;
28304;SDS011;15569;42.652;23.040;2023-03-01T14:34:35;12.95;;;8.00;;
28304;SDS011;15569;42.652;23.040;2023-03-01T14:40:00;9.32;;;6.15;;
28304;SDS011;15569;42.652;23.040;2023-03-01T14:42:29;12.70;;;6.95;;
28304;SDS011;15569;42.652;23.040;2023-03-01T14:44:59;11.88;;;7.20;;
28304;SDS011;15569;42.652;23.040;2023-03-01T14:47:27;27.55;;;15.93;;
28304;SDS011;15569;42.652;23.040;2023-03-01T14:49:59;26.98;;;13.00;;
28304;SDS011;15569;42.652;23.040;2023-03-01T14:52:34;17.73;;;10.02;;
28304;SDS011;15569;42.652;23.040;2023-03-01T14:55:03;21.33;;;7.25;;
28304;SDS011;15569;42.652;23.040;2023-03-01T14:57:30;29.65;;;18.08;;
28304;SDS011;15569;42.652;23.040;2023-03-01T15:00:00;14.32;;;10.30;;
28304;SDS011;15569;42.652;23.040;2023-03-01T15:02:31;13.05;;;6.45;;
28304;SDS011;15569;42.652;23.040;2023-03-01T15:04:58;13.88;;;7.50;;
28304;SDS011;15569;42.652;23.040;2023-03-01T15:07:34;13.25;;;8.25;;
28304;SDS011;15569;42.652;23.040;2023-03-01T15:10:03;18.25;;;9.70;;
28304;SDS011;15569;42.652;23.040;2023-03-01T15:14:56;26.10;;;8.93;;
28304;SDS011;15569;42.652;23.040;2023-03-01T15:19:56;19.75;;;8.18;;
28304;SDS011;15569;42.652;23.040;2023-03-01T15:22:22;18.55;;;7.85;;
28304;SDS011;15569;42.652;23.040;2023-03-01T15:24:49;15.23;;;6.90;;
28304;SDS011;15569;42.652;23.040;2023-03-01T15:27:19;12.63;;;8.02;;
28304;SDS011;15569;42.652;23.040;2023-03-01T15:29:58;13.05;;;6.90;;
28304;SDS011;15569;42.652;23.040;2023-03-01T15:32:32;17.50;;;10.18;;
28304;SDS011;15569;42.652;23.040;2023-03-01T15:35:00;14.70;;;7.70;;
28304;SDS011;15569;42.652;23.040;2023-03-01T15:40:22;26.98;;;12.88;;
28304;SDS011;15569;42.652;23.040;2023-03-01T15:42:56;16.92;;;8.95;;
28304;SDS011;15569;42.652;23.040;2023-03-01T15:45:26;18.83;;;9.10;;
28304;SDS011;15569;42.652;23.040;2023-03-01T15:47:56;14.32;;;7.88;;
28304;SDS011;15569;42.652;23.040;2023-03-01T15:50:40;14.55;;;8.48;;
28304;SDS011;15569;42.652;23.040;2023-03-01T15:53:07;16.63;;;9.38;;
28304;SDS011;15569;42.652;23.040;2023-03-01T15:58:16;26.33;;;13.20;;
28304;SDS011;15569;42.652;23.040;2023-03-01T16:00:47;16.45;;;9.18;;
28304;SDS011;15569;42.652;23.040;2023-03-01T16:03:13;17.67;;;9.38;;
28304;SDS011;15569;42.652;23.040;2023-03-01T16:05:46;12.85;;;6.43;;
28304;SDS011;15569;42.652;23.040;2023-03-01T16:08:12;18.40;;;9.05;;
28304;SDS011;15569;42.652;23.040;2023-03-01T16:10:38;23.15;;;10.00;;
28304;SDS011;15569;42.652;23.040;2023-03-01T16:13:05;17.95;;;8.48;;
28304;SDS011;15569;42.652;23.040;2023-03-01T16:15:31;16.23;;;10.15;;
28304;SDS011;15569;42.652;23.040;2023-03-01T16:18:01;17.52;;;10.15;;
28304;SDS011;15569;42.652;23.040;2023-03-01T16:20:28;16.60;;;7.63;;
28304;SDS011;15569;42.652;23.040;2023-03-01T16:22:55;17.35;;;9.18;;
28304;SDS011;15569;42.652;23.040;2023-03-01T16:25:24;16.08;;;7.70;;
28304;SDS011;15569;42.652;23.040;2023-03-01T16:27:50;14.30;;;7.25;;
28304;SDS011;15569;42.652;23.040;2023-03-01T16:30:18;13.68;;;8.30;;
28304;SDS011;15569;42.652;23.040;2023-03-01T16:32:46;16.20;;;9.98;;
28304;SDS011;15569;42.652;23.040;2023-03-01T16:35:12;20.15;;;9.88;;
28304;SDS011;15569;42.652;23.040;2023-03-01T16:37:40;14.32;;;8.77;;
28304;SDS011;15569;42.652;23.040;2023-03-01T16:40:07;18.38;;;9.60;;
28304;SDS011;15569;42.652;23.040;2023-03-01T16:42:47;17.02;;;8.13;;
28304;SDS011;15569;42.652;23.040;2023-03-01T16:45:12;16.80;;;8.55;;
28304;SDS011;15569;42.652;23.040;2023-03-01T16:47:38;23.25;;;11.55;;
28304;SDS011;15569;42.652;23.040;2023-03-01T16:50:03;17.13;;;8.88;;
28304;SDS011;15569;42.652;23.040;2023-03-01T16:52:29;24.55;;;12.15;;
28304;SDS011;15569;42.652;23.040;2023-03-01T16:54:54;23.83;;;11.13;;
28304;SDS011;15569;42.652;23.040;2023-03-01T16:57:20;42.25;;;18.95;;
28304;SDS011;15569;42.652;23.040;2023-03-01T16:59:45;30.70;;;16.23;;
28304;SDS011;15569;42.652;23.040;2023-03-01T17:02:11;29.30;;;15.20;;
28304;SDS011;15569;42.652;23.040;2023-03-01T17:04:40;19.60;;;10.43;;
28304;SDS011;15569;42.652;23.040;2023-03-01T17:07:06;24.23;;;11.00;;
28304;SDS011;15569;42.652;23.040;2023-03-01T17:09:35;37.75;;;16.63;;
28304;SDS011;15569;42.652;23.040;2023-03-01T17:12:02;26.25;;;11.48;;
28304;SDS011;15569;42.652;23.040;2023-03-01T17:14:28;21.70;;;11.10;;
28304;SDS011;15569;42.652;23.040;2023-03-01T17:16:54;19.85;;;10.48;;
28304;SDS011;15569;42.652;23.040;2023-03-01T17:24:10;27.20;;;11.85;;
28304;SDS011;15569;42.652;23.040;2023-03-01T17:26:36;30.95;;;13.55;;
28304;SDS011;15569;42.652;23.040;2023-03-01T17:29:02;15.75;;;8.20;;
28304;SDS011;15569;42.652;23.040;2023-03-01T17:31:29;15.25;;;7.90;;
28304;SDS011;15569;42.652;23.040;2023-03-01T17:33:55;16.23;;;8.25;;
28304;SDS011;15569;42.652;23.040;2023-03-01T17:36:21;17.73;;;9.52;;
28304;SDS011;15569;42.652;23.040;2023-03-01T17:38:46;18.35;;;11.02;;
28304;SDS011;15569;42.652;23.040;2023-03-01T17:41:13;22.40;;;11.52;;
28304;SDS011;15569;42.652;23.040;2023-03-01T17:43:41;33.50;;;13.20;;
28304;SDS011;15569;42.652;23.040;2023-03-01T17:46:07;22.63;;;11.93;;
28304;SDS011;15569;42.652;23.040;2023-03-01T17:48:32;28.50;;;14.05;;
28304;SDS011;15569;42.652;23.040;2023-03-01T17:50:58;21.73;;;12.10;;